sensor_id;sensor_type;location;lat;lon;timestamp;temperature;humidity
27376;DHT22;14844;51.302;6.354;2023-03-01T00:01:22;-1.20;99.90
27376;DHT22;14844;51.302;6.354;2023-03-01T00:03:48;-1.30;99.90
27376;DHT22;14844;51.302;6.354;2023-03-01T00:06:14;-1.20;99.90
27376;DHT22;14844;51.302;6.354;2023-03-01T00:08:40;-1.20;99.90
27376;DHT22;14844;51.302;6.354;2023-03-01T00:11:08;-1.20;99.90
27376;DHT22;14844;51.302;6.354;2023-03-01T00:13:36;-1.20;99.90
27376;DHT22;14844;51.302;6.354;2023-03-01T00:16:06;-1.20;99.90
27376;DHT22;14844;51.302;6.354;2023-03-01T00:18:32;-1.20;99.90
27376;DHT22;14844;51.302;6.354;2023-03-01T00:20:58;-1.40;99.90
27376;DHT22;14844;51.302;6.354;2023-03-01T00:23:24;-1.50;99.90
27376;DHT22;14844;51.302;6.354;2023-03-01T00:25:50;-1.60;99.90
27376;DHT22;14844;51.302;6.354;2023-03-01T00:28:16;-1.60;99.90
27376;DHT22;14844;51.302;6.354;2023-03-01T00:30:42;-1.60;99.90
27376;DHT22;14844;51.302;6.354;2023-03-01T00:33:08;-1.50;99.90
27376;DHT22;14844;51.302;6.354;2023-03-01T00:35:34;-1.50;99.90
27376;DHT22;14844;51.302;6.354;2023-03-01T00:38:01;-1.40;99.90
27376;DHT22;14844;51.302;6.354;2023-03-01T00:40:28;-1.20;99.90
27376;DHT22;14844;51.302;6.354;2023-03-01T00:42:54;-1.10;99.90
27376;DHT22;14844;51.302;6.354;2023-03-01T00:45:20;-1.00;99.90
27376;DHT22;14844;51.302;6.354;2023-03-01T00:47:45;-1.00;99.90
27376;DHT22;14844;51.302;6.354;2023-03-01T00:50:11;-1.00;99.90
27376;DHT22;14844;51.302;6.354;2023-03-01T00:52:37;-0.90;99.90
27376;DHT22;14844;51.302;6.354;2023-03-01T00:55:04;-1.00;99.90
27376;DHT22;14844;51.302;6.354;2023-03-01T00:57:29;-1.10;99.90
27376;DHT22;14844;51.302;6.354;2023-03-01T00:59:55;-1.20;99.90
27376;DHT22;14844;51.302;6.354;2023-03-01T01:02:20;-1.30;99.90
27376;DHT22;14844;51.302;6.354;2023-03-01T01:04:46;-1.40;99.90
27376;DHT22;14844;51.302;6.354;2023-03-01T01:07:12;-1.50;99.90
27376;DHT22;14844;51.302;6.354;2023-03-01T01:09:38;-1.60;99.90
27376;DHT22;14844;51.302;6.354;2023-03-01T01:12:04;-1.50;99.90
27376;DHT22;14844;51.302;6.354;2023-03-01T01:14:30;-1.50;99.90
27376;DHT22;14844;51.302;6.354;2023-03-01T01:16:55;-1.50;99.90
27376;DHT22;14844;51.302;6.354;2023-03-01T01:19:21;-1.50;99.90
27376;DHT22;14844;51.302;6.354;2023-03-01T01:21:48;-1.60;99.90
27376;DHT22;14844;51.302;6.354;2023-03-01T01:24:14;-1.60;99.90
27376;DHT22;14844;51.302;6.354;2023-03-01T01:26:40;-1.60;99.90
27376;DHT22;14844;51.302;6.354;2023-03-01T01:29:06;-1.80;99.90
27376;DHT22;14844;51.302;6.354;2023-03-01T01:31:33;-1.80;99.90
27376;DHT22;14844;51.302;6.354;2023-03-01T01:34:00;-1.90;99.90
27376;DHT22;14844;51.302;6.354;2023-03-01T01:36:26;-2.00;99.90
27376;DHT22;14844;51.302;6.354;2023-03-01T01:38:51;-2.10;99.90
27376;DHT22;14844;51.302;6.354;2023-03-01T01:41:18;-2.00;99.90
27376;DHT22;14844;51.302;6.354;2023-03-01T01:43:46;-1.90;99.90
27376;DHT22;14844;51.302;6.354;2023-03-01T01:46:29;-1.90;99.90
27376;DHT22;14844;51.302;6.354;2023-03-01T01:49:03;-1.80;99.90
27376;DHT22;14844;51.302;6.354;2023-03-01T01:51:37;-1.70;99.90
27376;DHT22;14844;51.302;6.354;2023-03-01T01:54:09;-1.70;99.90
27376;DHT22;14844;51.302;6.354;2023-03-01T01:56:36;-1.70;99.90
27376;DHT22;14844;51.302;6.354;2023-03-01T01:59:02;-1.80;99.90
27376;DHT22;14844;51.302;6.354;2023-03-01T02:01:28;-1.80;99.90
27376;DHT22;14844;51.302;6.354;2023-03-01T02:03:54;-1.90;99.90
27376;DHT22;14844;51.302;6.354;2023-03-01T02:06:42;-1.90;99.90
27376;DHT22;14844;51.302;6.354;2023-03-01T02:09:14;-1.90;99.90
27376;DHT22;14844;51.302;6.354;2023-03-01T02:11:41;-1.80;99.90
27376;DHT22;14844;51.302;6.354;2023-03-01T02:14:07;-1.80;99.90
27376;DHT22;14844;51.302;6.354;2023-03-01T02:16:32;-1.90;99.90
27376;DHT22;14844;51.302;6.354;2023-03-01T02:18:58;-1.90;99.90
27376;DHT22;14844;51.302;6.354;2023-03-01T02:21:50;-1.90;99.90
27376;DHT22;14844;51.302;6.354;2023-03-01T02:26:53;-2.00;99.90
27376;DHT22;14844;51.302;6.354;2023-03-01T02:29:20;-2.00;99.90
27376;DHT22;14844;51.302;6.354;2023-03-01T02:31:47;-2.00;99.90
27376;DHT22;14844;51.302;6.354;2023-03-01T02:34:15;-2.10;99.90
27376;DHT22;14844;51.302;6.354;2023-03-01T02:39:14;-2.20;99.90
27376;DHT22;14844;51.302;6.354;2023-03-01T02:41:50;-2.20;99.90
27376;DHT22;14844;51.302;6.354;2023-03-01T02:44:16;-2.30;99.90
27376;DHT22;14844;51.302;6.354;2023-03-01T02:46:46;-2.40;99.90
27376;DHT22;14844;51.302;6.354;2023-03-01T02:49:30;-2.50;99.90
27376;DHT22;14844;51.302;6.354;2023-03-01T02:54:30;-2.60;99.90
27376;DHT22;14844;51.302;6.354;2023-03-01T02:56:56;-2.60;99.90
27376;DHT22;14844;51.302;6.354;2023-03-01T02:59:26;-2.60;99.90
27376;DHT22;14844;51.302;6.354;2023-03-01T03:01:52;-2.70;99.90
27376;DHT22;14844;51.302;6.354;2023-03-01T03:04:18;-2.90;99.90
27376;DHT22;14844;51.302;6.354;2023-03-01T03:06:47;-2.80;99.90
27376;DHT22;14844;51.302;6.354;2023-03-01T03:09:15;-2.70;99.90
27376;DHT22;14844;51.302;6.354;2023-03-01T03:11:41;-2.60;99.90
27376;DHT22;14844;51.302;6.354;2023-03-01T03:14:09;-2.80;99.90
27376;DHT22;14844;51.302;6.354;2023-03-01T03:16:40;-3.00;99.90
27376;DHT22;14844;51.302;6.354;2023-03-01T03:19:06;-3.00;99.90
27376;DHT22;14844;51.302;6.354;2023-03-01T03:21:32;-3.00;99.90
27376;DHT22;14844;51.302;6.354;2023-03-01T03:23:58;-3.00;99.90
27376;DHT22;14844;51.302;6.354;2023-03-01T03:26:24;-2.90;99.90
27376;DHT22;14844;51.302;6.354;2023-03-01T03:28:49;-3.10;99.90
27376;DHT22;14844;51.302;6.354;2023-03-01T03:31:15;-3.10;99.90
27376;DHT22;14844;51.302;6.354;2023-03-01T03:33:41;-3.00;99.90
27376;DHT22;14844;51.302;6.354;2023-03-01T03:36:07;-2.80;99.90
27376;DHT22;14844;51.302;6.354;2023-03-01T03:38:39;-2.70;99.90
27376;DHT22;14844;51.302;6.354;2023-03-01T03:41:07;-2.70;99.90
27376;DHT22;14844;51.302;6.354;2023-03-01T03:43:35;-2.70;99.90
27376;DHT22;14844;51.302;6.354;2023-03-01T03:46:02;-2.70;99.90
27376;DHT22;14844;51.302;6.354;2023-03-01T03:48:34;-2.70;99.90
27376;DHT22;14844;51.302;6.354;2023-03-01T03:51:00;-2.70;99.90
27376;DHT22;14844;51.302;6.354;2023-03-01T03:53:27;-2.80;99.90
27376;DHT22;14844;51.302;6.354;2023-03-01T03:55:53;-2.80;99.90
27376;DHT22;14844;51.302;6.354;2023-03-01T03:58:21;-2.80;99.90
27376;DHT22;14844;51.302;6.354;2023-03-01T04:00:48;-2.80;99.90
27376;DHT22;14844;51.302;6.354;2023-03-01T04:03:16;-2.80;99.90
27376;DHT22;14844;51.302;6.354;2023-03-01T04:05:42;-2.80;99.90
27376;DHT22;14844;51.302;6.354;2023-03-01T04:08:08;-2.70;99.90
27376;DHT22;14844;51.302;6.354;2023-03-01T04:10:37;-2.80;99.90
27376;DHT22;14844;51.302;6.354;2023-03-01T04:13:04;-2.80;99.90
27376;DHT22;14844;51.302;6.354;2023-03-01T04:15:31;-2.80;99.90
27376;DHT22;14844;51.302;6.354;2023-03-01T04:17:57;-2.80;99.90
27376;DHT22;14844;51.302;6.354;2023-03-01T04:20:29;-2.80;99.90
27376;DHT22;14844;51.302;6.354;2023-03-01T04:23:03;-2.80;99.90
27376;DHT22;14844;51.302;6.354;2023-03-01T04:25:40;-2.90;99.90
27376;DHT22;14844;51.302;6.354;2023-03-01T04:28:06;-2.90;99.90
27376;DHT22;14844;51.302;6.354;2023-03-01T04:30:32;-2.90;99.90
27376;DHT22;14844;51.302;6.354;2023-03-01T04:33:02;-2.90;99.90
27376;DHT22;14844;51.302;6.354;2023-03-01T04:35:29;-2.90;99.90
27376;DHT22;14844;51.302;6.354;2023-03-01T04:37:54;-2.90;99.90
27376;DHT22;14844;51.302;6.354;2023-03-01T04:40:20;-3.00;99.90
27376;DHT22;14844;51.302;6.354;2023-03-01T04:42:46;-3.10;99.90
27376;DHT22;14844;51.302;6.354;2023-03-01T04:45:12;-3.00;99.90
27376;DHT22;14844;51.302;6.354;2023-03-01T04:47:43;-3.10;99.90
27376;DHT22;14844;51.302;6.354;2023-03-01T04:50:11;-3.10;99.90
27376;DHT22;14844;51.302;6.354;2023-03-01T04:52:37;-3.10;99.90
27376;DHT22;14844;51.302;6.354;2023-03-01T04:55:03;-3.20;99.90
27376;DHT22;14844;51.302;6.354;2023-03-01T04:57:29;-3.20;99.90
27376;DHT22;14844;51.302;6.354;2023-03-01T04:59:54;-3.10;99.90
27376;DHT22;14844;51.302;6.354;2023-03-01T05:02:20;-3.10;99.90
27376;DHT22;14844;51.302;6.354;2023-03-01T05:04:45;-3.00;99.90
27376;DHT22;14844;51.302;6.354;2023-03-01T05:07:11;-3.00;99.90
27376;DHT22;14844;51.302;6.354;2023-03-01T05:09:38;-3.00;99.90
27376;DHT22;14844;51.302;6.354;2023-03-01T05:12:04;-3.10;99.90
27376;DHT22;14844;51.302;6.354;2023-03-01T05:14:30;-3.20;99.90
27376;DHT22;14844;51.302;6.354;2023-03-01T05:16:55;-3.20;99.90
27376;DHT22;14844;51.302;6.354;2023-03-01T05:19:30;-3.10;99.90
27376;DHT22;14844;51.302;6.354;2023-03-01T05:21:57;-3.10;99.90
27376;DHT22;14844;51.302;6.354;2023-03-01T05:24:33;-3.10;99.90
27376;DHT22;14844;51.302;6.354;2023-03-01T05:27:00;-3.20;99.90
27376;DHT22;14844;51.302;6.354;2023-03-01T05:29:28;-3.20;99.90
27376;DHT22;14844;51.302;6.354;2023-03-01T05:31:55;-3.20;99.90
27376;DHT22;14844;51.302;6.354;2023-03-01T05:34:25;-3.20;99.90
27376;DHT22;14844;51.302;6.354;2023-03-01T05:36:52;-3.20;99.90
27376;DHT22;14844;51.302;6.354;2023-03-01T05:39:19;-3.20;99.90
27376;DHT22;14844;51.302;6.354;2023-03-01T05:41:47;-3.10;99.90
27376;DHT22;14844;51.302;6.354;2023-03-01T05:44:13;-3.10;99.90
27376;DHT22;14844;51.302;6.354;2023-03-01T05:46:38;-3.00;99.90
27376;DHT22;14844;51.302;6.354;2023-03-01T05:49:04;-3.10;99.90
27376;DHT22;14844;51.302;6.354;2023-03-01T05:51:30;-3.20;99.90
27376;DHT22;14844;51.302;6.354;2023-03-01T05:53:56;-3.10;99.90
27376;DHT22;14844;51.302;6.354;2023-03-01T05:56:21;-3.00;99.90
27376;DHT22;14844;51.302;6.354;2023-03-01T05:58:48;-2.90;99.90
27376;DHT22;14844;51.302;6.354;2023-03-01T06:01:14;-2.90;99.90
27376;DHT22;14844;51.302;6.354;2023-03-01T06:03:40;-2.90;99.90
27376;DHT22;14844;51.302;6.354;2023-03-01T06:06:05;-2.90;99.90
27376;DHT22;14844;51.302;6.354;2023-03-01T06:08:31;-3.00;99.90
27376;DHT22;14844;51.302;6.354;2023-03-01T06:10:56;-2.90;99.90
27376;DHT22;14844;51.302;6.354;2023-03-01T06:13:23;-2.90;99.90
27376;DHT22;14844;51.302;6.354;2023-03-01T06:15:48;-3.00;99.90
27376;DHT22;14844;51.302;6.354;2023-03-01T06:18:14;-3.00;99.90
27376;DHT22;14844;51.302;6.354;2023-03-01T06:20:40;-3.10;99.90
27376;DHT22;14844;51.302;6.354;2023-03-01T06:23:05;-3.10;99.90
27376;DHT22;14844;51.302;6.354;2023-03-01T06:25:31;-3.10;99.90
27376;DHT22;14844;51.302;6.354;2023-03-01T06:27:57;-3.20;99.90
27376;DHT22;14844;51.302;6.354;2023-03-01T06:30:24;-3.10;99.90
27376;DHT22;14844;51.302;6.354;2023-03-01T06:32:50;-3.10;99.90
27376;DHT22;14844;51.302;6.354;2023-03-01T06:35:17;-3.10;99.90
27376;DHT22;14844;51.302;6.354;2023-03-01T06:37:43;-3.00;99.90
27376;DHT22;14844;51.302;6.354;2023-03-01T06:40:10;-2.90;99.90
27376;DHT22;14844;51.302;6.354;2023-03-01T06:42:38;-2.80;99.90
27376;DHT22;14844;51.302;6.354;2023-03-01T06:45:05;-2.80;99.90
27376;DHT22;14844;51.302;6.354;2023-03-01T06:47:32;-2.70;99.90
27376;DHT22;14844;51.302;6.354;2023-03-01T06:49:59;-2.60;99.90
27376;DHT22;14844;51.302;6.354;2023-03-01T06:52:24;-2.50;99.90
27376;DHT22;14844;51.302;6.354;2023-03-01T06:54:50;-2.40;99.90
27376;DHT22;14844;51.302;6.354;2023-03-01T06:57:15;-2.30;99.90
27376;DHT22;14844;51.302;6.354;2023-03-01T06:59:41;-2.30;99.90
27376;DHT22;14844;51.302;6.354;2023-03-01T07:02:12;-2.10;99.90
27376;DHT22;14844;51.302;6.354;2023-03-01T07:04:38;-2.00;99.90
27376;DHT22;14844;51.302;6.354;2023-03-01T07:07:04;-2.00;99.90
27376;DHT22;14844;51.302;6.354;2023-03-01T07:09:30;-1.80;99.90
27376;DHT22;14844;51.302;6.354;2023-03-01T07:11:56;-1.70;99.90
27376;DHT22;14844;51.302;6.354;2023-03-01T07:14:22;-1.60;99.90
27376;DHT22;14844;51.302;6.354;2023-03-01T07:16:49;-1.50;99.90
27376;DHT22;14844;51.302;6.354;2023-03-01T07:19:15;-1.40;99.90
27376;DHT22;14844;51.302;6.354;2023-03-01T07:21:40;-1.30;99.90
27376;DHT22;14844;51.302;6.354;2023-03-01T07:27:28;-1.00;99.90
27376;DHT22;14844;51.302;6.354;2023-03-01T07:29:54;-0.90;99.90
27376;DHT22;14844;51.302;6.354;2023-03-01T07:32:19;-0.80;99.90
27376;DHT22;14844;51.302;6.354;2023-03-01T07:34:45;-0.70;99.90
27376;DHT22;14844;51.302;6.354;2023-03-01T07:37:10;-0.60;99.90
27376;DHT22;14844;51.302;6.354;2023-03-01T07:39:36;-0.50;99.90
27376;DHT22;14844;51.302;6.354;2023-03-01T07:42:01;-0.40;99.90
27376;DHT22;14844;51.302;6.354;2023-03-01T07:44:27;-0.30;99.90
27376;DHT22;14844;51.302;6.354;2023-03-01T07:46:53;-0.20;99.90
27376;DHT22;14844;51.302;6.354;2023-03-01T07:49:21;0.00;99.90
27376;DHT22;14844;51.302;6.354;2023-03-01T07:51:47;0.10;99.90
27376;DHT22;14844;51.302;6.354;2023-03-01T07:54:12;0.20;99.90
27376;DHT22;14844;51.302;6.354;2023-03-01T07:56:38;0.30;99.90
27376;DHT22;14844;51.302;6.354;2023-03-01T07:59:04;0.40;99.90
27376;DHT22;14844;51.302;6.354;2023-03-01T08:01:29;0.50;99.90
27376;DHT22;14844;51.302;6.354;2023-03-01T08:03:55;0.60;99.90
27376;DHT22;14844;51.302;6.354;2023-03-01T08:06:20;0.70;99.90
27376;DHT22;14844;51.302;6.354;2023-03-01T08:08:46;0.80;99.90
27376;DHT22;14844;51.302;6.354;2023-03-01T08:11:13;1.00;99.90
27376;DHT22;14844;51.302;6.354;2023-03-01T08:13:39;1.10;99.90
27376;DHT22;14844;51.302;6.354;2023-03-01T08:16:11;1.20;99.90
27376;DHT22;14844;51.302;6.354;2023-03-01T08:18:37;1.20;99.90
27376;DHT22;14844;51.302;6.354;2023-03-01T08:21:14;1.30;99.90
27376;DHT22;14844;51.302;6.354;2023-03-01T08:23:40;1.50;99.90
27376;DHT22;14844;51.302;6.354;2023-03-01T08:26:20;1.50;99.90
27376;DHT22;14844;51.302;6.354;2023-03-01T08:28:47;1.70;99.90
27376;DHT22;14844;51.302;6.354;2023-03-01T08:31:24;1.80;99.90
27376;DHT22;14844;51.302;6.354;2023-03-01T08:33:53;1.90;99.90
27376;DHT22;14844;51.302;6.354;2023-03-01T08:36:25;2.00;99.90
27376;DHT22;14844;51.302;6.354;2023-03-01T08:38:51;2.10;99.90
27376;DHT22;14844;51.302;6.354;2023-03-01T08:41:16;2.10;99.90
27376;DHT22;14844;51.302;6.354;2023-03-01T08:43:42;2.20;99.90
27376;DHT22;14844;51.302;6.354;2023-03-01T08:46:08;2.30;99.90
27376;DHT22;14844;51.302;6.354;2023-03-01T08:48:34;2.20;99.90
27376;DHT22;14844;51.302;6.354;2023-03-01T08:51:20;2.30;99.90
27376;DHT22;14844;51.302;6.354;2023-03-01T08:53:46;2.40;99.90
27376;DHT22;14844;51.302;6.354;2023-03-01T08:56:22;2.40;99.90
27376;DHT22;14844;51.302;6.354;2023-03-01T08:58:48;2.50;99.90
27376;DHT22;14844;51.302;6.354;2023-03-01T09:01:16;2.50;99.90
27376;DHT22;14844;51.302;6.354;2023-03-01T09:03:42;2.60;99.90
27376;DHT22;14844;51.302;6.354;2023-03-01T09:06:08;2.70;99.90
27376;DHT22;14844;51.302;6.354;2023-03-01T09:08:42;2.80;99.90
27376;DHT22;14844;51.302;6.354;2023-03-01T09:11:10;2.90;99.90
27376;DHT22;14844;51.302;6.354;2023-03-01T09:13:36;3.10;99.90
27376;DHT22;14844;51.302;6.354;2023-03-01T09:16:04;3.20;99.90
27376;DHT22;14844;51.302;6.354;2023-03-01T09:18:30;3.30;99.90
27376;DHT22;14844;51.302;6.354;2023-03-01T09:21:07;3.30;99.90
27376;DHT22;14844;51.302;6.354;2023-03-01T09:23:38;3.40;99.90
27376;DHT22;14844;51.302;6.354;2023-03-01T09:26:09;3.50;99.90
27376;DHT22;14844;51.302;6.354;2023-03-01T09:28:36;3.70;99.90
27376;DHT22;14844;51.302;6.354;2023-03-01T09:31:02;3.70;99.90
27376;DHT22;14844;51.302;6.354;2023-03-01T09:33:29;3.80;99.90
27376;DHT22;14844;51.302;6.354;2023-03-01T09:36:00;3.90;99.90
27376;DHT22;14844;51.302;6.354;2023-03-01T09:38:26;4.00;99.90
27376;DHT22;14844;51.302;6.354;2023-03-01T09:40:52;4.00;99.90
27376;DHT22;14844;51.302;6.354;2023-03-01T09:43:53;4.10;99.90
27376;DHT22;14844;51.302;6.354;2023-03-01T09:46:23;4.00;99.90
27376;DHT22;14844;51.302;6.354;2023-03-01T09:48:56;4.10;99.90
27376;DHT22;14844;51.302;6.354;2023-03-01T09:51:31;4.20;99.90
27376;DHT22;14844;51.302;6.354;2023-03-01T09:53:57;4.30;99.90
27376;DHT22;14844;51.302;6.354;2023-03-01T09:56:32;4.30;99.90
27376;DHT22;14844;51.302;6.354;2023-03-01T09:59:16;4.40;99.90
27376;DHT22;14844;51.302;6.354;2023-03-01T10:01:59;4.50;99.90
27376;DHT22;14844;51.302;6.354;2023-03-01T10:07:27;4.50;99.90
27376;DHT22;14844;51.302;6.354;2023-03-01T10:09:55;4.60;99.90
27376;DHT22;14844;51.302;6.354;2023-03-01T10:12:26;4.70;99.90
27376;DHT22;14844;51.302;6.354;2023-03-01T10:17:52;4.90;99.90
27376;DHT22;14844;51.302;6.354;2023-03-01T10:23:10;5.10;99.90
27376;DHT22;14844;51.302;6.354;2023-03-01T10:28:29;5.30;99.90
27376;DHT22;14844;51.302;6.354;2023-03-01T10:30:57;5.50;99.90
27376;DHT22;14844;51.302;6.354;2023-03-01T10:33:27;5.30;99.90
27376;DHT22;14844;51.302;6.354;2023-03-01T10:35:53;5.40;99.90
27376;DHT22;14844;51.302;6.354;2023-03-01T10:38:20;5.40;99.90
27376;DHT22;14844;51.302;6.354;2023-03-01T10:41:04;5.40;99.90
27376;DHT22;14844;51.302;6.354;2023-03-01T10:43:52;5.60;99.90
27376;DHT22;14844;51.302;6.354;2023-03-01T10:46:27;5.70;99.90
27376;DHT22;14844;51.302;6.354;2023-03-01T10:49:22;5.60;99.90
27376;DHT22;14844;51.302;6.354;2023-03-01T10:51:52;5.70;99.90
27376;DHT22;14844;51.302;6.354;2023-03-01T10:54:30;5.90;99.90
27376;DHT22;14844;51.302;6.354;2023-03-01T10:57:04;6.10;99.90
27376;DHT22;14844;51.302;6.354;2023-03-01T10:59:32;6.20;99.90
27376;DHT22;14844;51.302;6.354;2023-03-01T11:05:13;6.30;99.90
27376;DHT22;14844;51.302;6.354;2023-03-01T11:07:51;6.40;99.90
27376;DHT22;14844;51.302;6.354;2023-03-01T11:10:23;6.30;99.90
27376;DHT22;14844;51.302;6.354;2023-03-01T11:12:52;6.30;99.90
27376;DHT22;14844;51.302;6.354;2023-03-01T11:15:26;6.40;99.90
27376;DHT22;14844;51.302;6.354;2023-03-01T11:17:55;6.50;99.90
27376;DHT22;14844;51.302;6.354;2023-03-01T11:20:35;6.70;99.90
27376;DHT22;14844;51.302;6.354;2023-03-01T11:23:13;6.80;99.70
27376;DHT22;14844;51.302;6.354;2023-03-01T11:25:43;6.90;99.90
27376;DHT22;14844;51.302;6.354;2023-03-01T11:28:15;6.90;99.90
27376;DHT22;14844;51.302;6.354;2023-03-01T11:30:58;7.00;99.80
27376;DHT22;14844;51.302;6.354;2023-03-01T11:36:39;6.90;99.20
27376;DHT22;14844;51.302;6.354;2023-03-01T11:41:50;6.90;99.00
27376;DHT22;14844;51.302;6.354;2023-03-01T11:44:25;6.90;99.20
27376;DHT22;14844;51.302;6.354;2023-03-01T11:47:11;6.90;99.20
27376;DHT22;14844;51.302;6.354;2023-03-01T11:49:57;7.10;98.50
27376;DHT22;14844;51.302;6.354;2023-03-01T12:01:02;7.00;98.00
27376;DHT22;14844;51.302;6.354;2023-03-01T12:03:47;7.00;97.80
27376;DHT22;14844;51.302;6.354;2023-03-01T12:11:54;6.90;97.30
27376;DHT22;14844;51.302;6.354;2023-03-01T12:14:41;7.10;97.40
27376;DHT22;14844;51.302;6.354;2023-03-01T12:22:35;7.30;97.10
27376;DHT22;14844;51.302;6.354;2023-03-01T12:25:25;7.40;96.20
27376;DHT22;14844;51.302;6.354;2023-03-01T12:28:02;7.30;95.50
27376;DHT22;14844;51.302;6.354;2023-03-01T12:33:38;7.50;95.90
27376;DHT22;14844;51.302;6.354;2023-03-01T12:39:27;7.30;95.60
27376;DHT22;14844;51.302;6.354;2023-03-01T12:42:28;7.20;95.90
27376;DHT22;14844;51.302;6.354;2023-03-01T12:45:01;7.20;94.80
27376;DHT22;14844;51.302;6.354;2023-03-01T12:47:51;7.10;95.10
27376;DHT22;14844;51.302;6.354;2023-03-01T12:50:22;7.10;94.80
27376;DHT22;14844;51.302;6.354;2023-03-01T12:52:52;7.30;94.70
27376;DHT22;14844;51.302;6.354;2023-03-01T12:55:34;7.30;94.30
27376;DHT22;14844;51.302;6.354;2023-03-01T12:58:24;7.30;93.70
27376;DHT22;14844;51.302;6.354;2023-03-01T13:09:30;7.70;93.80
27376;DHT22;14844;51.302;6.354;2023-03-01T13:11:58;7.70;94.10
27376;DHT22;14844;51.302;6.354;2023-03-01T13:16:54;7.60;93.00
27376;DHT22;14844;51.302;6.354;2023-03-01T13:19:27;7.50;93.60
27376;DHT22;14844;51.302;6.354;2023-03-01T13:21:58;7.60;93.90
27376;DHT22;14844;51.302;6.354;2023-03-01T13:24:26;7.60;93.90
27376;DHT22;14844;51.302;6.354;2023-03-01T13:29:52;7.70;94.90
27376;DHT22;14844;51.302;6.354;2023-03-01T13:37:42;7.60;95.70
27376;DHT22;14844;51.302;6.354;2023-03-01T13:42:45;7.60;95.00
27376;DHT22;14844;51.302;6.354;2023-03-01T13:48:03;7.50;95.70
27376;DHT22;14844;51.302;6.354;2023-03-01T13:50:36;7.60;95.70
27376;DHT22;14844;51.302;6.354;2023-03-01T13:53:05;7.50;95.30
27376;DHT22;14844;51.302;6.354;2023-03-01T13:55:49;7.60;95.60
27376;DHT22;14844;51.302;6.354;2023-03-01T13:58:33;7.60;95.90
27376;DHT22;14844;51.302;6.354;2023-03-01T14:01:21;7.50;95.30
27376;DHT22;14844;51.302;6.354;2023-03-01T14:03:47;7.50;94.70
27376;DHT22;14844;51.302;6.354;2023-03-01T14:06:14;7.40;94.60
27376;DHT22;14844;51.302;6.354;2023-03-01T14:08:41;7.40;95.00
27376;DHT22;14844;51.302;6.354;2023-03-01T14:21:14;7.40;94.90
27376;DHT22;14844;51.302;6.354;2023-03-01T14:23:40;7.40;94.90
27376;DHT22;14844;51.302;6.354;2023-03-01T14:26:08;7.40;94.80
27376;DHT22;14844;51.302;6.354;2023-03-01T14:28:37;7.30;94.80
27376;DHT22;14844;51.302;6.354;2023-03-01T14:31:37;7.30;94.80
27376;DHT22;14844;51.302;6.354;2023-03-01T14:34:03;7.40;95.20
27376;DHT22;14844;51.302;6.354;2023-03-01T14:36:32;7.50;95.20
27376;DHT22;14844;51.302;6.354;2023-03-01T14:38:58;7.50;94.90
27376;DHT22;14844;51.302;6.354;2023-03-01T14:41:32;7.50;94.80
27376;DHT22;14844;51.302;6.354;2023-03-01T14:44:05;7.50;94.30
27376;DHT22;14844;51.302;6.354;2023-03-01T14:46:43;7.50;93.90
27376;DHT22;14844;51.302;6.354;2023-03-01T14:49:13;7.60;94.60
27376;DHT22;14844;51.302;6.354;2023-03-01T14:51:43;7.70;95.00
27376;DHT22;14844;51.302;6.354;2023-03-01T14:54:24;7.70;94.80
27376;DHT22;14844;51.302;6.354;2023-03-01T14:56:52;7.60;95.00
27376;DHT22;14844;51.302;6.354;2023-03-01T14:59:21;7.50;95.40
27376;DHT22;14844;51.302;6.354;2023-03-01T15:01:49;7.50;95.00
27376;DHT22;14844;51.302;6.354;2023-03-01T15:04:16;7.50;95.00
27376;DHT22;14844;51.302;6.354;2023-03-01T15:06:42;7.50;95.30
27376;DHT22;14844;51.302;6.354;2023-03-01T15:09:14;7.50;95.00
27376;DHT22;14844;51.302;6.354;2023-03-01T15:11:41;7.40;95.00
27376;DHT22;14844;51.302;6.354;2023-03-01T15:14:41;7.40;94.60
27376;DHT22;14844;51.302;6.354;2023-03-01T15:17:33;7.40;94.60
27376;DHT22;14844;51.302;6.354;2023-03-01T15:20:02;7.30;93.90
27376;DHT22;14844;51.302;6.354;2023-03-01T15:22:29;7.30;94.50
27376;DHT22;14844;51.302;6.354;2023-03-01T15:24:55;7.30;94.70
27376;DHT22;14844;51.302;6.354;2023-03-01T15:27:23;7.30;93.70
27376;DHT22;14844;51.302;6.354;2023-03-01T15:34:53;7.20;93.50
27376;DHT22;14844;51.302;6.354;2023-03-01T15:37:44;7.10;93.70
27376;DHT22;14844;51.302;6.354;2023-03-01T15:40:27;7.00;93.70
27376;DHT22;14844;51.302;6.354;2023-03-01T15:43:06;7.00;93.90
27376;DHT22;14844;51.302;6.354;2023-03-01T15:45:57;7.00;94.10
27376;DHT22;14844;51.302;6.354;2023-03-01T15:48:23;6.90;93.90
27376;DHT22;14844;51.302;6.354;2023-03-01T15:50:56;6.90;93.80
27376;DHT22;14844;51.302;6.354;2023-03-01T15:53:22;6.90;94.20
27376;DHT22;14844;51.302;6.354;2023-03-01T15:55:48;6.90;94.60
27376;DHT22;14844;51.302;6.354;2023-03-01T16:00:44;7.20;94.30
27376;DHT22;14844;51.302;6.354;2023-03-01T16:03:11;7.40;94.40
27376;DHT22;14844;51.302;6.354;2023-03-01T16:05:37;7.50;93.80
27376;DHT22;14844;51.302;6.354;2023-03-01T16:08:04;7.60;93.90
27376;DHT22;14844;51.302;6.354;2023-03-01T16:10:32;7.70;93.90
27376;DHT22;14844;51.302;6.354;2023-03-01T16:12:58;7.70;93.90
27376;DHT22;14844;51.302;6.354;2023-03-01T16:15:26;7.80;93.70
27376;DHT22;14844;51.302;6.354;2023-03-01T16:17:52;7.90;93.70
27376;DHT22;14844;51.302;6.354;2023-03-01T16:20:18;7.90;93.60
27376;DHT22;14844;51.302;6.354;2023-03-01T16:22:44;7.90;93.70
27376;DHT22;14844;51.302;6.354;2023-03-01T16:25:14;7.90;93.70
27376;DHT22;14844;51.302;6.354;2023-03-01T16:27:45;8.00;93.80
27376;DHT22;14844;51.302;6.354;2023-03-01T16:30:12;7.90;93.70
27376;DHT22;14844;51.302;6.354;2023-03-01T16:32:43;7.90;93.50
27376;DHT22;14844;51.302;6.354;2023-03-01T16:35:10;7.80;93.60
27376;DHT22;14844;51.302;6.354;2023-03-01T16:37:36;7.70;93.80
27376;DHT22;14844;51.302;6.354;2023-03-01T16:40:03;7.70;93.80
27376;DHT22;14844;51.302;6.354;2023-03-01T16:42:33;7.50;94.20
27376;DHT22;14844;51.302;6.354;2023-03-01T16:44:59;7.50;94.50
27376;DHT22;14844;51.302;6.354;2023-03-01T16:47:26;7.40;94.60
27376;DHT22;14844;51.302;6.354;2023-03-01T16:49:52;7.40;94.90
27376;DHT22;14844;51.302;6.354;2023-03-01T16:52:18;7.40;94.80
27376;DHT22;14844;51.302;6.354;2023-03-01T16:54:44;7.30;94.70
27376;DHT22;14844;51.302;6.354;2023-03-01T16:57:10;7.00;94.90
27376;DHT22;14844;51.302;6.354;2023-03-01T16:59:35;6.70;95.20
27376;DHT22;14844;51.302;6.354;2023-03-01T17:02:03;6.30;95.70
27376;DHT22;14844;51.302;6.354;2023-03-01T17:04:29;6.00;96.00
27376;DHT22;14844;51.302;6.354;2023-03-01T17:06:54;5.80;96.10
27376;DHT22;14844;51.302;6.354;2023-03-01T17:09:20;5.50;96.70
27376;DHT22;14844;51.302;6.354;2023-03-01T17:11:48;5.30;97.10
27376;DHT22;14844;51.302;6.354;2023-03-01T17:14:15;5.20;97.40
27376;DHT22;14844;51.302;6.354;2023-03-01T17:16:41;5.10;97.60
27376;DHT22;14844;51.302;6.354;2023-03-01T17:19:07;4.90;97.70
27376;DHT22;14844;51.302;6.354;2023-03-01T17:21:33;4.90;97.60
27376;DHT22;14844;51.302;6.354;2023-03-01T17:23:59;4.80;97.60
27376;DHT22;14844;51.302;6.354;2023-03-01T17:26:25;4.70;97.70
27376;DHT22;14844;51.302;6.354;2023-03-01T17:28:50;4.60;97.90
27376;DHT22;14844;51.302;6.354;2023-03-01T17:31:17;4.50;98.10